Aeroporto :
LOGIN :

Iscrizione | Disclaimer

   EN    FR    IT 

 










Sommario :    VFR   VFR Marginale   IFR   IFR Intensivo   IFR Molto Intensivo
Visibilità : 
Base nubi : 
>= 8 km
>= 3000ft
5 / 8 km
1000 / 3000 ft
1500m / 5 km
500 / 1000 ft
800 / 1500m
200 / 500 ft
< 800m
< 200 ft
Simboli :   Temporali  Nebbia  Neve Forte  Precipitazioni Forti  Vento > 20 kt
SIGMETs :   Varie  Temporali  Ghiacco  Turbolenza  Onda orograficha  Ceneri Vulcaniche






- Altitudine del aeroporto : 313 ft
- Codice IATA : LEH


LFOH - Le Havre Octeville

ULTIMO METAR :
  • 072330Z AUTO 11005KT CAVOK 14/09 Q1025

METARs OBSOLETI :
  • 072300Z AUTO 11005KT CAVOK 13/09 Q1024
  • 072230Z AUTO 10005KT CAVOK 13/08 Q1025
  • 072200Z AUTO 11005KT CAVOK 13/08 Q1025
  • 072130Z AUTO 10005KT CAVOK 13/08 Q1025
  • 072100Z AUTO 10006KT CAVOK 14/08 Q1025

Previsioni scadute.
ATIS : +33 2 35 54 64 93



MetMap, La meteo Aeronautica in un colpo d'occhio ! - Copyright ORBIFLY Dicembre 2007 - Disclaimer

ORBIFLY MET'MAP TEAM :

Programmazione e sviluppo : Alexandra Zaïnal
Concezione : Baudouin d'Aumeries
Aiuto per la programmazione : Marc-Olivier Méhu
Supporto tecnico e logistico : Manuel Goepfert
Aiuto per la traduzione : Arnaldo La Scala

Contatto : metmap@orbifly.com




FONTI E CREDITI :

   NOAA